Big Piney River (Missouri), Fort Leonard Wood (06930060)

StateMissouriLatestPoor (282 cfs)
RiverBig Piney RiverRatingObservedEstimated
Updated2020-09-23 1:00 (56 minutes ago)Flood - The river is flooding. Obstacles can be treacherous or deadly. The river should be avoided at this stage for casual trips and definitely for the inexperienced. Trips should be attempted only with protective gear and equipment.Flood(none)3031
Discharge282 cfs (median: 215 cfs)High - The river is high and potentially dangerous, especially for the young and / or inexperienced. Normal stream obstacles are sometimes difficult to navigate. Extended distances can be attempted, but canoe travel may not be advisable.High(none)1449
Height2.07 feetGood - Conditions are ideal for a canoe or kayak. Boats typically will drag on fewer than one-quarter of riffles, if at all, and portages are unnecessary or rare. Normal float lengths can be attempted without a problem.Good(none)638
TrendFalling (falling over 24 hours)Low - River is low but can still be floated. Some riffles are okay but most come with significant dragging and might need a portage. Float lengths should be reduced to accommodate low flow, dragging, and portages.Low(none)385
USGSExternal icon USGS Site (External icon Google Maps)Poor - River is too low to float comfortably. Most or all riffles will drag or must be portaged and some obstacles (such as slick shelf rock) cause undue problems. Avoid the river at this stage for casual paddling trips.Poor(none)204

Trending Data

Plot Image

Trips for Big Piney River (Missouri), Fort Leonard Wood (06930060)

DateStartEndDistanceConditionDischargeHeightFishingDetails

A total of 0 rows are displayed.

Condition Descriptions

Fishing Conditions

Fish Species

Notes

Classic Trip List

The classic River Trips application is still available for use. It is updated with the new system using a data retrofit. It is no longer maintained. The original River Trips application is no longer updated (as of 1 Dec 2016) but can be checked for errors or for the condition of the data before it was converted to the new system.

Gauge Data Table

ObservationHeightDischargeMaximum
Discharge
Minimum
Discharge
Mean
Discharge
P05P10P20P25P50
(Median)
P75P80P90P95
2020-09-23 01:00 2.07 282 1420 (2009) 116 (2000) 293 117 127 145 146 215 307 344 563 1380
2020-09-23 00:00 2.09 288 1420 (2009) 116 (2000) 293 117 127 145 146 215 307 344 563 1380
2020-09-22 23:00 2.08 285 924 (2009) 115 (2000) 279 116 133 140 146 215 331 379 635 911
2020-09-22 22:00 2.09 288 924 (2009) 115 (2000) 279 116 133 140 146 215 331 379 635 911
2020-09-22 21:00 2.08 285 924 (2009) 115 (2000) 279 116 133 140 146 215 331 379 635 911
2020-09-22 20:00 2.08 285 924 (2009) 115 (2000) 279 116 133 140 146 215 331 379 635 911
2020-09-22 19:00 2.08 285 924 (2009) 115 (2000) 279 116 133 140 146 215 331 379 635 911
2020-09-22 18:00 2.08 285 924 (2009) 115 (2000) 279 116 133 140 146 215 331 379 635 911
2020-09-22 17:00 2.08 285 924 (2009) 115 (2000) 279 116 133 140 146 215 331 379 635 911
2020-09-22 16:00 2.07 282 924 (2009) 115 (2000) 279 116 133 140 146 215 331 379 635 911
2020-09-22 15:00 2.09 288 924 (2009) 115 (2000) 279 116 133 140 146 215 331 379 635 911
2020-09-22 14:00 2.08 285 924 (2009) 115 (2000) 279 116 133 140 146 215 331 379 635 911
2020-09-22 13:00 2.08 285 924 (2009) 115 (2000) 279 116 133 140 146 215 331 379 635 911
2020-09-22 12:00 2.07 282 924 (2009) 115 (2000) 279 116 133 140 146 215 331 379 635 911
2020-09-22 11:00 2.07 282 924 (2009) 115 (2000) 279 116 133 140 146 215 331 379 635 911
2020-09-22 10:00 2.06 279 924 (2009) 115 (2000) 279 116 133 140 146 215 331 379 635 911
2020-09-22 09:00 2.07 282 924 (2009) 115 (2000) 279 116 133 140 146 215 331 379 635 911
2020-09-22 08:00 2.08 285 924 (2009) 115 (2000) 279 116 133 140 146 215 331 379 635 911
2020-09-22 07:00 2.08 285 924 (2009) 115 (2000) 279 116 133 140 146 215 331 379 635 911
2020-09-22 06:00 2.08 285 924 (2009) 115 (2000) 279 116 133 140 146 215 331 379 635 911
2020-09-22 05:00 2.08 285 924 (2009) 115 (2000) 279 116 133 140 146 215 331 379 635 911
2020-09-22 04:00 2.08 285 924 (2009) 115 (2000) 279 116 133 140 146 215 331 379 635 911
2020-09-22 03:00 2.08 285 924 (2009) 115 (2000) 279 116 133 140 146 215 331 379 635 911
2020-09-22 02:00 2.09 288 924 (2009) 115 (2000) 279 116 133 140 146 215 331 379 635 911
2020-09-22 01:00 2.08 285 924 (2009) 115 (2000) 279 116 133 140 146 215 331 379 635 911
2020-09-22 00:00 2.09 288 924 (2009) 115 (2000) 279 116 133 140 146 215 331 379 635 911
2020-09-21 23:00 2.09 288 1220 (2009) 116 (2000) 308 117 138 143 149 220 351 432 732 1200
2020-09-21 22:00 2.09 288 1220 (2009) 116 (2000) 308 117 138 143 149 220 351 432 732 1200
2020-09-21 21:00 2.09 288 1220 (2009) 116 (2000) 308 117 138 143 149 220 351 432 732 1200
2020-09-21 20:00 2.08 285 1220 (2009) 116 (2000) 308 117 138 143 149 220 351 432 732 1200
2020-09-21 19:00 2.08 285 1220 (2009) 116 (2000) 308 117 138 143 149 220 351 432 732 1200
2020-09-21 18:00 2.09 288 1220 (2009) 116 (2000) 308 117 138 143 149 220 351 432 732 1200
2020-09-21 17:00 2.08 285 1220 (2009) 116 (2000) 308 117 138 143 149 220 351 432 732 1200
2020-09-21 16:00 2.08 285 1220 (2009) 116 (2000) 308 117 138 143 149 220 351 432 732 1200
2020-09-21 15:00 2.08 285 1220 (2009) 116 (2000) 308 117 138 143 149 220 351 432 732 1200
2020-09-21 14:00 2.07 282 1220 (2009) 116 (2000) 308 117 138 143 149 220 351 432 732 1200
2020-09-21 13:00 2.06 279 1220 (2009) 116 (2000) 308 117 138 143 149 220 351 432 732 1200
2020-09-21 12:00 2.09 288 1220 (2009) 116 (2000) 308 117 138 143 149 220 351 432 732 1200
2020-09-21 11:00 2.08 285 1220 (2009) 116 (2000) 308 117 138 143 149 220 351 432 732 1200
2020-09-21 10:00 2.10 291 1220 (2009) 116 (2000) 308 117 138 143 149 220 351 432 732 1200
2020-09-21 09:00 2.08 285 1220 (2009) 116 (2000) 308 117 138 143 149 220 351 432 732 1200
2020-09-21 08:00 2.07 282 1220 (2009) 116 (2000) 308 117 138 143 149 220 351 432 732 1200
2020-09-21 07:00 2.08 285 1220 (2009) 116 (2000) 308 117 138 143 149 220 351 432 732 1200
2020-09-21 05:45 2.08 285 1220 (2009) 116 (2000) 308 117 138 143 149 220 351 432 732 1200
2020-09-21 05:00 2.08 285 1220 (2009) 116 (2000) 308 117 138 143 149 220 351 432 732 1200
2020-09-21 04:00 2.06 279 1220 (2009) 116 (2000) 308 117 138 143 149 220 351 432 732 1200
2020-09-21 03:00 2.09 288 1220 (2009) 116 (2000) 308 117 138 143 149 220 351 432 732 1200
2020-09-21 02:00 2.10 291 1220 (2009) 116 (2000) 308 117 138 143 149 220 351 432 732 1200
2020-09-21 01:00 2.08 285 1220 (2009) 116 (2000) 308 117 138 143 149 220 351 432 732 1200
2020-09-21 00:00 2.09 288 1220 (2009) 116 (2000) 308 117 138 143 149 220 351 432 732 1200
2020-09-20 23:00 2.08 285 892 (2008) 118 (2000) 281 118 130 146 151 218 281 403 597 878
2020-09-20 22:00 2.09 288 892 (2008) 118 (2000) 281 118 130 146 151 218 281 403 597 878
2020-09-20 21:00 2.09 288 892 (2008) 118 (2000) 281 118 130 146 151 218 281 403 597 878
2020-09-20 20:00 2.09 288 892 (2008) 118 (2000) 281 118 130 146 151 218 281 403 597 878
2020-09-20 19:00 2.09 288 892 (2008) 118 (2000) 281 118 130 146 151 218 281 403 597 878
2020-09-20 18:00 2.09 288 892 (2008) 118 (2000) 281 118 130 146 151 218 281 403 597 878
2020-09-20 17:00 2.10 291 892 (2008) 118 (2000) 281 118 130 146 151 218 281 403 597 878
2020-09-20 16:00 2.11 294 892 (2008) 118 (2000) 281 118 130 146 151 218 281 403 597 878
2020-09-20 15:00 2.10 291 892 (2008) 118 (2000) 281 118 130 146 151 218 281 403 597 878
2020-09-20 14:00 2.07 282 892 (2008) 118 (2000) 281 118 130 146 151 218 281 403 597 878
2020-09-20 13:00 2.10 291 892 (2008) 118 (2000) 281 118 130 146 151 218 281 403 597 878
2020-09-20 12:00 2.09 288 892 (2008) 118 (2000) 281 118 130 146 151 218 281 403 597 878
2020-09-20 11:00 2.09 288 892 (2008) 118 (2000) 281 118 130 146 151 218 281 403 597 878
2020-09-20 10:00 2.10 291 892 (2008) 118 (2000) 281 118 130 146 151 218 281 403 597 878
2020-09-20 09:00 2.09 288 892 (2008) 118 (2000) 281 118 130 146 151 218 281 403 597 878
2020-09-20 08:00 2.08 285 892 (2008) 118 (2000) 281 118 130 146 151 218 281 403 597 878
2020-09-20 07:00 2.06 279 892 (2008) 118 (2000) 281 118 130 146 151 218 281 403 597 878
2020-09-20 06:00 2.05 277 892 (2008) 118 (2000) 281 118 130 146 151 218 281 403 597 878
2020-09-20 05:00 2.08 285 892 (2008) 118 (2000) 281 118 130 146 151 218 281 403 597 878
2020-09-20 04:00 2.09 288 892 (2008) 118 (2000) 281 118 130 146 151 218 281 403 597 878
2020-09-20 03:00 2.09 288 892 (2008) 118 (2000) 281 118 130 146 151 218 281 403 597 878
2020-09-20 02:00 2.07 282 892 (2008) 118 (2000) 281 118 130 146 151 218 281 403 597 878
2020-09-20 01:00 2.09 288 892 (2008) 118 (2000) 281 118 130 146 151 218 281 403 597 878
2020-09-20 00:00 2.10 291 892 (2008) 118 (2000) 281 118 130 146 151 218 281 403 597 878
2020-09-19 23:00 2.10 291 1090 (2008) 119 (2000) 308 120 138 150 152 221 274 466 759 1070
2020-09-19 22:00 2.10 291 1090 (2008) 119 (2000) 308 120 138 150 152 221 274 466 759 1070
2020-09-19 21:00 2.12 297 1090 (2008) 119 (2000) 308 120 138 150 152 221 274 466 759 1070
2020-09-19 20:00 2.12 297 1090 (2008) 119 (2000) 308 120 138 150 152 221 274 466 759 1070
2020-09-19 19:00 2.13 300 1090 (2008) 119 (2000) 308 120 138 150 152 221 274 466 759 1070
2020-09-19 18:00 2.12 297 1090 (2008) 119 (2000) 308 120 138 150 152 221 274 466 759 1070
2020-09-19 17:00 2.09 288 1090 (2008) 119 (2000) 308 120 138 150 152 221 274 466 759 1070
2020-09-19 16:00 2.10 291 1090 (2008) 119 (2000) 308 120 138 150 152 221 274 466 759 1070
2020-09-19 15:00 2.09 288 1090 (2008) 119 (2000) 308 120 138 150 152 221 274 466 759 1070
2020-09-19 14:00 2.10 291 1090 (2008) 119 (2000) 308 120 138 150 152 221 274 466 759 1070
2020-09-19 13:00 2.10 291 1090 (2008) 119 (2000) 308 120 138 150 152 221 274 466 759 1070
2020-09-19 12:00 2.10 291 1090 (2008) 119 (2000) 308 120 138 150 152 221 274 466 759 1070
2020-09-19 11:00 2.10 291 1090 (2008) 119 (2000) 308 120 138 150 152 221 274 466 759 1070
2020-09-19 10:00 2.08 285 1090 (2008) 119 (2000) 308 120 138 150 152 221 274 466 759 1070
2020-09-19 09:00 2.12 297 1090 (2008) 119 (2000) 308 120 138 150 152 221 274 466 759 1070
2020-09-19 08:00 2.10 291 1090 (2008) 119 (2000) 308 120 138 150 152 221 274 466 759 1070
2020-09-19 07:00 2.11 294 1090 (2008) 119 (2000) 308 120 138 150 152 221 274 466 759 1070
2020-09-19 06:00 2.10 291 1090 (2008) 119 (2000) 308 120 138 150 152 221 274 466 759 1070
2020-09-19 05:00 2.10 291 1090 (2008) 119 (2000) 308 120 138 150 152 221 274 466 759 1070
2020-09-19 04:00 2.11 294 1090 (2008) 119 (2000) 308 120 138 150 152 221 274 466 759 1070
2020-09-19 03:00 2.11 294 1090 (2008) 119 (2000) 308 120 138 150 152 221 274 466 759 1070
2020-09-19 02:00 2.11 294 1090 (2008) 119 (2000) 308 120 138 150 152 221 274 466 759 1070
2020-09-19 01:00 2.11 294 1090 (2008) 119 (2000) 308 120 138 150 152 221 274 466 759 1070
2020-09-19 00:00 2.10 291 1090 (2008) 119 (2000) 308 120 138 150 152 221 274 466 759 1070
2020-09-18 23:00 2.12 297 1450 (2008) 119 (2000) 371 120 140 151 157 218 267 534 1180 1440
2020-09-18 22:00 2.13 300 1450 (2008) 119 (2000) 371 120 140 151 157 218 267 534 1180 1440
2020-09-18 21:00 2.11 294 1450 (2008) 119 (2000) 371 120 140 151 157 218 267 534 1180 1440
2020-09-18 20:00 2.11 294 1450 (2008) 119 (2000) 371 120 140 151 157 218 267 534 1180 1440
2020-09-18 19:00 2.10 291 1450 (2008) 119 (2000) 371 120 140 151 157 218 267 534 1180 1440
2020-09-18 18:00 2.08 285 1450 (2008) 119 (2000) 371 120 140 151 157 218 267 534 1180 1440
2020-09-18 17:00 2.09 288 1450 (2008) 119 (2000) 371 120 140 151 157 218 267 534 1180 1440
2020-09-18 16:00 2.08 285 1450 (2008) 119 (2000) 371 120 140 151 157 218 267 534 1180 1440
2020-09-18 15:00 2.10 291 1450 (2008) 119 (2000) 371 120 140 151 157 218 267 534 1180 1440
2020-09-18 14:00 2.10 291 1450 (2008) 119 (2000) 371 120 140 151 157 218 267 534 1180 1440
2020-09-18 13:00 2.12 297 1450 (2008) 119 (2000) 371 120 140 151 157 218 267 534 1180 1440
2020-09-18 12:00 2.11 294 1450 (2008) 119 (2000) 371 120 140 151 157 218 267 534 1180 1440
2020-09-18 11:00 2.12 297 1450 (2008) 119 (2000) 371 120 140 151 157 218 267 534 1180 1440
2020-09-18 10:00 2.13 300 1450 (2008) 119 (2000) 371 120 140 151 157 218 267 534 1180 1440
2020-09-18 09:00 2.12 297 1450 (2008) 119 (2000) 371 120 140 151 157 218 267 534 1180 1440
2020-09-18 08:00 2.14 303 1450 (2008) 119 (2000) 371 120 140 151 157 218 267 534 1180 1440
2020-09-18 07:00 2.13 300 1450 (2008) 119 (2000) 371 120 140 151 157 218 267 534 1180 1440
2020-09-18 06:00 2.13 300 1450 (2008) 119 (2000) 371 120 140 151 157 218 267 534 1180 1440
2020-09-18 05:00 2.12 297 1450 (2008) 119 (2000) 371 120 140 151 157 218 267 534 1180 1440
2020-09-18 04:00 2.11 294 1450 (2008) 119 (2000) 371 120 140 151 157 218 267 534 1180 1440
2020-09-18 03:00 2.11 294 1450 (2008) 119 (2000) 371 120 140 151 157 218 267 534 1180 1440
2020-09-18 02:00 2.09 288 1450 (2008) 119 (2000) 371 120 140 151 157 218 267 534 1180 1440
2020-09-18 01:00 2.11 294 1450 (2008) 119 (2000) 371 120 140 151 157 218 267 534 1180 1440
2020-09-18 00:00 2.12 297 1450 (2008) 119 (2000) 371 120 140 151 157 218 267 534 1180 1440
2020-09-17 23:00 2.12 297 2130 (2008) 122 (2000) 417 123 137 152 161 212 268 482 1750 2120
2020-09-17 22:00 2.13 300 2130 (2008) 122 (2000) 417 123 137 152 161 212 268 482 1750 2120
2020-09-17 21:00 2.12 297 2130 (2008) 122 (2000) 417 123 137 152 161 212 268 482 1750 2120
2020-09-17 20:00 2.11 294 2130 (2008) 122 (2000) 417 123 137 152 161 212 268 482 1750 2120
2020-09-17 19:00 2.11 294 2130 (2008) 122 (2000) 417 123 137 152 161 212 268 482 1750 2120
2020-09-17 18:00 2.12 297 2130 (2008) 122 (2000) 417 123 137 152 161 212 268 482 1750 2120
2020-09-17 17:00 2.12 297 2130 (2008) 122 (2000) 417 123 137 152 161 212 268 482 1750 2120
2020-09-17 16:00 2.12 297 2130 (2008) 122 (2000) 417 123 137 152 161 212 268 482 1750 2120
2020-09-17 15:00 2.14 303 2130 (2008) 122 (2000) 417 123 137 152 161 212 268 482 1750 2120
2020-09-17 14:00 2.14 303 2130 (2008) 122 (2000) 417 123 137 152 161 212 268 482 1750 2120
2020-09-17 13:00 2.13 300 2130 (2008) 122 (2000) 417 123 137 152 161 212 268 482 1750 2120
2020-09-17 12:00 2.13 300 2130 (2008) 122 (2000) 417 123 137 152 161 212 268 482 1750 2120
2020-09-17 11:00 2.13 300 2130 (2008) 122 (2000) 417 123 137 152 161 212 268 482 1750 2120
2020-09-17 10:00 2.11 294 2130 (2008) 122 (2000) 417 123 137 152 161 212 268 482 1750 2120
2020-09-17 09:00 2.11 294 2130 (2008) 122 (2000) 417 123 137 152 161 212 268 482 1750 2120
2020-09-17 08:00 2.11 294 2130 (2008) 122 (2000) 417 123 137 152 161 212 268 482 1750 2120
2020-09-17 07:00 2.12 297 2130 (2008) 122 (2000) 417 123 137 152 161 212 268 482 1750 2120
2020-09-17 06:00 2.11 294 2130 (2008) 122 (2000) 417 123 137 152 161 212 268 482 1750 2120
2020-09-17 05:00 2.12 297 2130 (2008) 122 (2000) 417 123 137 152 161 212 268 482 1750 2120
2020-09-17 04:00 2.12 297 2130 (2008) 122 (2000) 417 123 137 152 161 212 268 482 1750 2120
2020-09-17 03:00 2.11 294 2130 (2008) 122 (2000) 417 123 137 152 161 212 268 482 1750 2120
2020-09-17 02:00 2.13 300 2130 (2008) 122 (2000) 417 123 137 152 161 212 268 482 1750 2120
2020-09-17 01:00 2.14 303 2130 (2008) 122 (2000) 417 123 137 152 161 212 268 482 1750 2120
2020-09-17 00:00 2.13 300 2130 (2008) 122 (2000) 417 123 137 152 161 212 268 482 1750 2120
2020-09-16 23:00 2.13 300 5550 (2008) 122 (2000) 536 123 136 149 155 214 259 274 1020 5320
2020-09-16 22:00 2.12 297 5550 (2008) 122 (2000) 536 123 136 149 155 214 259 274 1020 5320
2020-09-16 21:00 2.12 297 5550 (2008) 122 (2000) 536 123 136 149 155 214 259 274 1020 5320
2020-09-16 20:00 2.13 300 5550 (2008) 122 (2000) 536 123 136 149 155 214 259 274 1020 5320
2020-09-16 19:00 2.11 294 5550 (2008) 122 (2000) 536 123 136 149 155 214 259 274 1020 5320
2020-09-16 18:00 2.11 294 5550 (2008) 122 (2000) 536 123 136 149 155 214 259 274 1020 5320
2020-09-16 17:00 2.12 297 5550 (2008) 122 (2000) 536 123 136 149 155 214 259 274 1020 5320
2020-09-16 16:00 2.13 300 5550 (2008) 122 (2000) 536 123 136 149 155 214 259 274 1020 5320
2020-09-16 15:00 2.12 297 5550 (2008) 122 (2000) 536 123 136 149 155 214 259 274 1020 5320
2020-09-16 14:00 2.11 294 5550 (2008) 122 (2000) 536 123 136 149 155 214 259 274 1020 5320
2020-09-16 13:00 2.12 297 5550 (2008) 122 (2000) 536 123 136 149 155 214 259 274 1020 5320
2020-09-16 12:00 2.14 303 5550 (2008) 122 (2000) 536 123 136 149 155 214 259 274 1020 5320
2020-09-16 11:00 2.12 297 5550 (2008) 122 (2000) 536 123 136 149 155 214 259 274 1020 5320
2020-09-16 10:00 2.12 297 5550 (2008) 122 (2000) 536 123 136 149 155 214 259 274 1020 5320
2020-09-16 09:00 2.12 297 5550 (2008) 122 (2000) 536 123 136 149 155 214 259 274 1020 5320
2020-09-16 08:00 2.14 303 5550 (2008) 122 (2000) 536 123 136 149 155 214 259 274 1020 5320
2020-09-16 07:00 2.13 300 5550 (2008) 122 (2000) 536 123 136 149 155 214 259 274 1020 5320
2020-09-16 06:00 2.14 303 5550 (2008) 122 (2000) 536 123 136 149 155 214 259 274 1020 5320
2020-09-16 05:00 2.14 303 5550 (2008) 122 (2000) 536 123 136 149 155 214 259 274 1020 5320
2020-09-16 04:00 2.14 303 5550 (2008) 122 (2000) 536 123 136 149 155 214 259 274 1020 5320
2020-09-16 03:00 2.15 306 5550 (2008) 122 (2000) 536 123 136 149 155 214 259 274 1020 5320
2020-09-16 02:00 2.15 306 5550 (2008) 122 (2000) 536 123 136 149 155 214 259 274 1020 5320
2020-09-16 01:00 2.13 300 5550 (2008) 122 (2000) 536 123 136 149 155 214 259 274 1020 5320
2020-09-16 00:00 2.14 303 5550 (2008) 122 (2000) 536 123 136 149 155 214 259 274 1020 5320

A total of 170 rows are displayed for years 2000 through 2019.